Time;durP1;ratioP1;P1;durP2;ratioP2;P2;SDS_P1;SDS_P2;PMS_P1;PMS_P2;Temp;Humidity;BMP_temperature;BMP_pressure;BME280_temperature;BME280_humidity;BME280_pressure;Samples;Min_cycle;Max_cycle;Signal;HPM_P1;HPM_P2
2022/07/05 00:00:19;;;;;;;2.63;1.90;;;17.80;98.00;;;;;;5051597;28;20975;-69
2022/07/05 00:02:46;;;;;;;3.57;2.13;;;17.70;98.00;;;;;;5051508;28;20461;-69
2022/07/05 00:05:13;;;;;;;2.07;1.80;;;17.60;98.00;;;;;;5051661;28;20458;-69
2022/07/05 00:07:42;;;;;;;1.90;1.57;;;17.60;98.00;;;;;;5051612;28;20876;-69
2022/07/05 00:10:09;;;;;;;2.70;2.13;;;17.60;98.00;;;;;;5051301;28;21020;-69
2022/07/05 00:12:37;;;;;;;3.97;2.13;;;17.60;98.00;;;;;;5051665;28;20472;-69
2022/07/05 00:15:05;;;;;;;2.63;1.73;;;17.80;98.00;;;;;;5051485;28;20541;-69
2022/07/05 00:17:36;;;;;;;2.60;2.03;;;17.70;98.00;;;;;;5051818;28;20478;-70
2022/07/05 00:20:05;;;;;;;2.07;1.73;;;17.70;98.00;;;;;;5051334;28;20465;-70
2022/07/05 00:22:32;;;;;;;2.67;1.70;;;17.50;98.00;;;;;;5051534;28;20956;-69
2022/07/05 00:25:01;;;;;;;4.40;1.80;;;17.40;98.00;;;;;;5051214;28;20458;-70
2022/07/05 00:27:28;;;;;;;3.53;2.03;;;17.40;98.00;;;;;;5050560;28;20469;-69
2022/07/05 00:29:55;;;;;;;3.00;1.70;;;17.30;98.00;;;;;;5054703;28;20485;-70
2022/07/05 00:32:22;;;;;;;1.70;1.50;;;17.50;98.00;;;;;;5054931;28;20470;-69
2022/07/05 00:34:49;;;;;;;1.70;1.63;;;17.60;98.00;;;;;;5054759;28;20498;-69
2022/07/05 00:37:16;;;;;;;2.23;1.77;;;17.60;98.00;;;;;;5054590;28;20454;-70
2022/07/05 00:39:45;;;;;;;2.33;1.87;;;17.70;98.00;;;;;;5054774;28;20479;-69
2022/07/05 00:42:13;;;;;;;3.83;2.10;;;17.70;98.00;;;;;;5054561;28;20956;-68
2022/07/05 00:44:42;;;;;;;2.33;1.60;;;17.60;98.00;;;;;;5054667;28;20797;-70
2022/07/05 00:47:11;;;;;;;2.13;1.70;;;17.40;98.00;;;;;;5054495;28;20450;-70
2022/07/05 00:49:39;;;;;;;3.50;2.03;;;17.30;98.00;;;;;;5054462;28;20539;-70
2022/07/05 00:52:08;;;;;;;3.07;1.90;;;17.30;98.00;;;;;;5054801;28;20837;-69
2022/07/05 00:54:37;;;;;;;2.00;1.70;;;17.20;98.00;;;;;;5054462;28;20818;-71
2022/07/05 00:57:06;;;;;;;1.90;1.67;;;17.10;98.00;;;;;;5054432;28;20462;-70
2022/07/05 00:59:35;;;;;;;2.60;1.90;;;17.10;98.00;;;;;;5054546;28;20469;-69
2022/07/05 01:02:03;;;;;;;2.90;1.90;;;17.10;98.00;;;;;;5054723;28;20462;-69
2022/07/05 01:04:31;;;;;;;2.77;2.00;;;17.00;98.00;;;;;;5053151;28;20818;-69
2022/07/05 01:07:00;;;;;;;1.87;1.47;;;17.00;98.00;;;;;;5054462;28;20519;-70
2022/07/05 01:09:27;;;;;;;2.20;1.57;;;17.10;98.00;;;;;;5054290;28;20843;-69
2022/07/05 01:11:55;;;;;;;3.00;1.87;;;17.00;98.00;;;;;;5054390;28;20461;-69
2022/07/05 01:14:23;;;;;;;3.60;1.97;;;17.00;98.00;;;;;;5054140;28;20531;-69
2022/07/05 01:16:53;;;;;;;2.57;2.00;;;17.00;98.00;;;;;;5054374;28;20469;-70
2022/07/05 01:19:22;;;;;;;2.33;1.87;;;17.00;98.00;;;;;;5054218;28;20465;-69
2022/07/05 01:21:50;;;;;;;1.73;1.50;;;17.00;98.00;;;;;;5053904;28;20464;-69
2022/07/05 01:24:20;;;;;;;3.17;2.03;;;17.00;98.00;;;;;;5054089;28;20478;-71
2022/07/05 01:26:49;;;;;;;2.70;2.10;;;17.10;98.00;;;;;;5054004;28;20515;-70
2022/07/05 01:29:17;;;;;;;3.00;1.70;;;17.10;98.00;;;;;;5053818;28;20847;-69
2022/07/05 01:31:44;;;;;;;2.07;1.50;;;17.00;98.00;;;;;;5053845;28;20488;-70
2022/07/05 01:34:11;;;;;;;1.70;1.60;;;16.90;98.00;;;;;;5053569;28;20461;-69
2022/07/05 01:36:39;;;;;;;3.30;2.20;;;16.80;98.00;;;;;;5053839;28;20796;-70
2022/07/05 01:39:09;;;;;;;1.97;1.80;;;16.90;98.00;;;;;;5053178;28;20839;-70
2022/07/05 01:41:37;;;;;;;2.20;2.00;;;16.80;98.00;;;;;;5053787;28;20489;-70
2022/07/05 01:44:05;;;;;;;2.43;1.57;;;16.80;98.00;;;;;;5053521;28;20951;-69
2022/07/05 01:46:37;;;;;;;2.73;2.23;;;16.60;98.00;;;;;;5053638;28;20783;-68
2022/07/05 01:49:07;;;;;;;2.13;1.80;;;16.50;98.00;;;;;;5053435;28;20820;-69
2022/07/05 01:51:37;;;;;;;2.17;1.80;;;16.60;98.00;;;;;;5053345;28;20497;-69
2022/07/05 01:54:05;;;;;;;2.13;1.80;;;16.80;98.00;;;;;;5053391;28;20799;-70
2022/07/05 01:56:32;;;;;;;1.90;1.60;;;16.70;98.00;;;;;;5053510;28;20469;-70
2022/07/05 01:59:02;;;;;;;2.63;1.70;;;16.70;98.00;;;;;;5053114;28;20457;-70
2022/07/05 02:01:37;;;;;;;4.87;1.90;;;16.70;98.00;;;;;;5053286;28;20461;-70
2022/07/05 02:04:05;;;;;;;2.20;1.57;;;16.90;98.00;;;;;;5053276;28;20798;-70
2022/07/05 02:06:33;;;;;;;2.20;1.67;;;16.90;98.00;;;;;;5053293;28;20465;-70
2022/07/05 02:09:04;;;;;;;2.83;2.03;;;17.00;98.00;;;;;;5053284;28;20458;-70
2022/07/05 02:11:31;;;;;;;3.50;2.03;;;16.80;98.00;;;;;;5052996;28;21033;-71
2022/07/05 02:14:00;;;;;;;3.20;1.90;;;16.50;98.00;;;;;;5053057;28;20471;-70
2022/07/05 02:16:29;;;;;;;2.60;1.87;;;16.40;98.00;;;;;;5053004;28;20461;-70
2022/07/05 02:18:56;;;;;;;3.80;1.87;;;16.20;98.00;;;;;;5053275;28;20462;-70
2022/07/05 02:21:24;;;;;;;2.60;1.63;;;16.20;98.00;;;;;;5053290;28;20446;-69
2022/07/05 02:23:54;;;;;;;2.27;1.60;;;16.30;98.00;;;;;;5052677;28;20450;-70
2022/07/05 02:26:21;;;;;;;1.83;1.50;;;16.40;98.00;;;;;;5051602;28;20465;-71
2022/07/05 02:28:49;;;;;;;3.73;2.20;;;16.50;98.00;;;;;;5052560;28;20970;-70
2022/07/05 02:31:19;;;;;;;2.67;1.80;;;16.40;98.00;;;;;;5052344;28;20493;-69
2022/07/05 02:33:46;;;;;;;1.77;1.60;;;16.50;98.00;;;;;;5052338;28;20458;-70
2022/07/05 02:36:14;;;;;;;1.50;1.40;;;16.60;98.00;;;;;;5052299;28;20454;-70
2022/07/05 02:38:42;;;;;;;1.73;1.70;;;16.40;98.00;;;;;;5052445;28;20466;-70
2022/07/05 02:41:11;;;;;;;1.50;1.50;;;16.20;98.00;;;;;;5052250;28;20442;-69
2022/07/05 02:43:39;;;;;;;2.47;1.60;;;15.90;98.00;;;;;;5052668;28;20485;-70
2022/07/05 02:46:08;;;;;;;3.10;2.10;;;16.00;98.00;;;;;;5052358;28;20489;-69
2022/07/05 02:48:38;;;;;;;2.67;2.00;;;16.10;98.00;;;;;;5052282;28;20458;-70
2022/07/05 02:51:06;;;;;;;2.13;1.60;;;16.10;98.00;;;;;;5051254;28;20493;-69
2022/07/05 02:53:34;;;;;;;2.17;1.67;;;16.00;98.00;;;;;;5052121;28;20462;-71
2022/07/05 02:56:02;;;;;;;2.40;2.07;;;15.90;98.00;;;;;;5051020;28;20469;-71
2022/07/05 02:58:29;;;;;;;2.20;1.93;;;15.60;98.00;;;;;;5052145;28;20539;-69
2022/07/05 03:00:56;;;;;;;2.17;1.60;;;15.70;98.00;;;;;;5051873;28;20468;-70
2022/07/05 03:03:24;;;;;;;2.87;1.63;;;15.60;98.00;;;;;;5050920;28;20454;-70
2022/07/05 03:05:52;;;;;;;1.83;1.30;;;15.60;98.00;;;;;;5051716;28;20850;-68
2022/07/05 03:08:19;;;;;;;1.60;1.40;;;15.60;98.00;;;;;;5052138;28;20458;-70
2022/07/05 03:10:47;;;;;;;2.03;1.57;;;15.50;98.00;;;;;;5052076;28;20491;-69
2022/07/05 03:13:14;;;;;;;2.47;1.80;;;15.50;98.00;;;;;;5051049;28;20936;-70
2022/07/05 03:15:42;;;;;;;2.80;1.80;;;15.50;98.00;;;;;;5052126;28;20461;-70
2022/07/05 03:18:10;;;;;;;3.10;1.73;;;15.50;98.00;;;;;;5052035;28;20803;-70
2022/07/05 03:20:37;;;;;;;2.47;1.83;;;15.40;98.00;;;;;;5051118;28;20489;-69
2022/07/05 03:23:05;;;;;;;1.73;1.53;;;15.30;98.00;;;;;;5052032;28;20979;-69
2022/07/05 03:25:35;;;;;;;5.47;2.83;;;15.30;98.00;;;;;;5051959;28;20461;-70
2022/07/05 03:28:02;;;;;;;2.57;1.97;;;15.30;98.00;;;;;;5051796;28;20450;-69
2022/07/05 03:30:29;;;;;;;2.20;1.90;;;15.40;98.00;;;;;;5050076;28;20493;-70
2022/07/05 03:32:58;;;;;;;1.93;1.60;;;15.30;98.00;;;;;;5051900;28;20462;-69
2022/07/05 03:35:25;;;;;;;2.10;1.50;;;15.30;98.00;;;;;;5050256;28;20972;-69
2022/07/05 03:37:52;;;;;;;2.10;1.70;;;15.50;98.00;;;;;;5051856;28;20461;-70
2022/07/05 03:40:20;;;;;;;2.17;1.73;;;15.60;98.00;;;;;;5051522;28;20460;-69
2022/07/05 03:42:48;;;;;;;1.97;1.67;;;15.50;98.00;;;;;;5051804;28;20453;-69
2022/07/05 03:45:16;;;;;;;1.80;1.70;;;15.60;98.00;;;;;;5051080;28;20462;-70
2022/07/05 03:47:43;;;;;;;2.87;2.07;;;15.60;98.00;;;;;;5051393;28;20484;-69
2022/07/05 03:50:10;;;;;;;3.40;2.00;;;15.60;98.00;;;;;;5051531;28;20462;-69
2022/07/05 03:52:37;;;;;;;1.70;1.40;;;15.50;98.00;;;;;;5051564;28;20458;-69
2022/07/05 03:55:07;;;;;;;2.30;1.80;;;15.30;98.00;;;;;;5051448;28;20461;-69
2022/07/05 03:57:35;;;;;;;2.67;1.60;;;15.20;98.00;;;;;;5051524;28;20462;-69
2022/07/05 04:00:02;;;;;;;1.70;1.60;;;15.20;98.00;;;;;;5051329;28;20454;-69
2022/07/05 04:02:29;;;;;;;2.33;1.57;;;15.10;98.00;;;;;;5051982;28;20507;-69
2022/07/05 04:04:57;;;;;;;2.63;1.73;;;15.10;98.00;;;;;;5055417;28;20465;-70
2022/07/05 04:07:24;;;;;;;3.20;2.10;;;15.30;98.00;;;;;;5055374;28;20457;-68
2022/07/05 04:09:51;;;;;;;2.67;1.80;;;15.40;98.00;;;;;;5055457;28;20453;-70
2022/07/05 04:12:18;;;;;;;1.57;1.50;;;15.40;98.00;;;;;;5055390;28;20492;-70
2022/07/05 04:14:47;;;;;;;2.77;1.90;;;15.50;98.00;;;;;;5055307;28;20461;-68
2022/07/05 04:17:14;;;;;;;2.93;1.97;;;15.60;98.00;;;;;;5055354;28;20454;-69
2022/07/05 04:19:41;;;;;;;2.67;2.00;;;15.70;98.00;;;;;;5055531;28;20460;-69
2022/07/05 04:22:09;;;;;;;2.87;1.63;;;15.90;98.00;;;;;;5055624;28;20461;-69
2022/07/05 04:25:16;;;;;;;2.43;1.80;;;16.00;98.00;;;;;;5053925;28;20453;-70
2022/07/05 04:27:23;;;;;;;2.33;1.50;;;16.10;98.00;;;;;;5055090;28;20449;-70
2022/07/05 04:29:52;;;;;;;2.53;1.60;;;16.20;98.00;;;;;;5054952;28;20469;-68
2022/07/05 04:32:19;;;;;;;2.10;1.53;;;16.10;98.00;;;;;;5053807;28;20504;-69
2022/07/05 04:34:47;;;;;;;1.90;1.80;;;16.10;98.00;;;;;;5053577;28;20474;-68
2022/07/05 04:37:14;;;;;;;2.70;2.00;;;16.10;98.00;;;;;;5054737;28;20453;-70
2022/07/05 04:39:41;;;;;;;4.40;1.97;;;15.80;98.00;;;;;;5054826;28;20461;-69
2022/07/05 04:42:08;;;;;;;2.00;1.80;;;15.60;98.00;;;;;;5053555;28;20462;-69
2022/07/05 04:44:36;;;;;;;1.70;1.40;;;15.50;98.00;;;;;;5054825;28;20472;-70
2022/07/05 04:47:05;;;;;;;1.70;1.60;;;15.50;98.00;;;;;;5054616;28;20457;-70
2022/07/05 04:49:34;;;;;;;2.47;1.53;;;15.50;98.00;;;;;;5053195;28;20473;-69
2022/07/05 04:52:01;;;;;;;1.97;1.50;;;15.50;98.00;;;;;;5054941;28;20485;-69
2022/07/05 04:54:28;;;;;;;2.27;1.50;;;15.50;98.00;;;;;;5054405;28;20805;-70
2022/07/05 04:56:55;;;;;;;2.10;1.60;;;15.50;98.00;;;;;;5054653;28;20469;-69
2022/07/05 04:59:22;;;;;;;2.10;1.67;;;15.60;98.00;;;;;;5054201;28;20819;-68
2022/07/05 05:01:50;;;;;;;3.27;2.00;;;15.90;98.00;;;;;;5054479;28;20486;-70
2022/07/05 05:04:19;;;;;;;2.73;1.70;;;16.20;98.00;;;;;;5054086;28;20473;-70
2022/07/05 05:06:46;;;;;;;2.60;1.90;;;16.40;98.00;;;;;;5054348;28;20461;-69
2022/07/05 05:09:13;;;;;;;2.97;2.07;;;16.50;98.00;;;;;;5054266;28;20458;-71
2022/07/05 05:11:40;;;;;;;2.00;1.60;;;16.60;98.00;;;;;;5054245;28;20489;-69
2022/07/05 05:14:07;;;;;;;1.90;1.60;;;16.50;98.00;;;;;;5053243;28;20462;-70
2022/07/05 05:16:34;;;;;;;1.70;1.50;;;16.40;98.00;;;;;;5054102;28;20473;-70
2022/07/05 05:19:02;;;;;;;2.50;1.90;;;16.30;98.00;;;;;;5054140;28;20457;-72
2022/07/05 05:21:30;;;;;;;2.70;1.83;;;16.30;98.00;;;;;;5054607;28;20460;-70
2022/07/05 05:23:57;;;;;;;2.67;1.90;;;16.40;98.00;;;;;;5054169;28;20794;-70
2022/07/05 05:26:25;;;;;;;2.00;1.70;;;16.40;98.00;;;;;;5054085;28;20537;-69
2022/07/05 05:28:53;;;;;;;2.50;2.00;;;16.50;98.00;;;;;;5053986;28;20461;-70
2022/07/05 05:31:22;;;;;;;3.27;2.40;;;16.70;98.00;;;;;;5053712;28;20486;-69
2022/07/05 05:33:49;;;;;;;2.37;1.90;;;16.80;98.00;;;;;;5053501;28;20547;-70
2022/07/05 05:36:18;;;;;;;1.70;1.47;;;16.90;98.00;;;;;;5053520;28;20453;-70
2022/07/05 05:38:47;;;;;;;2.73;1.93;;;17.10;98.00;;;;;;5053690;28;20458;-69
2022/07/05 05:41:14;;;;;;;2.93;2.13;;;17.30;98.00;;;;;;5053359;28;20480;-71
2022/07/05 05:43:41;;;;;;;3.63;2.13;;;17.40;98.00;;;;;;5052963;28;20462;-68
2022/07/05 05:46:08;;;;;;;3.50;2.33;;;17.50;98.00;;;;;;5052830;28;20461;-69
2022/07/05 05:48:37;;;;;;;3.00;2.17;;;17.60;98.00;;;;;;5052730;28;20812;-68
2022/07/05 05:51:04;;;;;;;2.47;1.90;;;17.70;98.00;;;;;;5051568;28;20488;-70
2022/07/05 05:53:35;;;;;;;2.13;2.00;;;17.80;98.00;;;;;;5052936;28;20626;-68
2022/07/05 05:56:04;;;;;;;2.77;1.87;;;17.90;98.00;;;;;;5052818;28;20453;-72
2022/07/05 05:58:32;;;;;;;3.13;1.93;;;18.00;98.00;;;;;;5052388;28;20458;-71
2022/07/05 06:00:59;;;;;;;3.87;2.10;;;18.00;98.00;;;;;;5052973;28;20460;-71
2022/07/05 06:03:27;;;;;;;3.00;2.03;;;18.10;98.00;;;;;;5052577;28;20643;-71
2022/07/05 06:05:54;;;;;;;2.27;1.70;;;18.20;98.00;;;;;;5052721;28;20454;-71
2022/07/05 06:08:22;;;;;;;6.37;2.40;;;18.30;98.00;;;;;;5052302;28;20465;-71
2022/07/05 06:10:49;;;;;;;2.97;2.00;;;18.30;98.00;;;;;;5052441;28;20461;-72
2022/07/05 06:13:18;;;;;;;3.47;2.40;;;18.40;98.00;;;;;;5052251;28;20468;-72
2022/07/05 06:15:46;;;;;;;3.53;1.90;;;18.60;98.00;;;;;;5052537;28;20940;-71
2022/07/05 06:18:14;;;;;;;4.80;2.33;;;18.60;98.00;;;;;;5052218;28;20464;-72
2022/07/05 06:20:41;;;;;;;3.90;2.13;;;18.70;98.00;;;;;;5052507;28;20457;-72
2022/07/05 06:23:08;;;;;;;3.80;2.37;;;18.70;98.00;;;;;;5052503;28;20454;-72
2022/07/05 06:25:36;;;;;;;5.40;2.53;;;18.80;98.00;;;;;;5052096;28;20974;-72
2022/07/05 06:28:06;;;;;;;4.20;2.43;;;19.00;98.00;;;;;;5051995;28;20500;-73
2022/07/05 06:30:36;;;;;;;3.23;1.93;;;19.10;98.00;;;;;;5052063;28;20475;-72
2022/07/05 06:33:04;;;;;;;3.30;2.10;;;19.10;98.00;;;;;;5052069;28;20488;-72
2022/07/05 06:35:32;;;;;;;4.57;2.20;;;19.10;98.00;;;;;;5051949;28;20458;-72
2022/07/05 06:38:05;;;;;;;3.60;2.30;;;19.20;98.00;;;;;;5052148;28;20541;-72
2022/07/05 06:40:34;;;;;;;2.77;2.13;;;19.30;98.00;;;;;;5051709;28;20462;-72
2022/07/05 06:43:03;;;;;;;3.80;2.53;;;19.40;98.00;;;;;;5051989;28;20472;-72
2022/07/05 06:45:31;;;;;;;4.40;2.53;;;19.50;98.00;;;;;;5051612;28;20472;-72
2022/07/05 06:48:01;;;;;;;5.73;2.70;;;19.60;98.00;;;;;;5051723;28;20464;-72
2022/07/05 06:50:32;;;;;;;5.60;2.33;;;19.50;98.00;;;;;;5051209;28;20460;-72
2022/07/05 06:53:00;;;;;;;7.10;3.93;;;19.40;98.00;;;;;;5051494;28;20492;-72
2022/07/05 06:55:28;;;;;;;4.13;2.60;;;19.60;98.00;;;;;;5051529;28;20473;-72
2022/07/05 06:57:59;;;;;;;4.20;2.77;;;19.70;98.00;;;;;;5051638;28;20454;-71
2022/07/05 07:00:27;;;;;;;4.17;2.47;;;19.80;98.00;;;;;;5050147;28;20457;-72
2022/07/05 07:02:55;;;;;;;5.00;2.43;;;19.90;98.00;;;;;;5047749;28;20473;-72
2022/07/05 07:05:26;;;;;;;2.93;1.93;;;19.90;98.00;;;;;;5048744;28;20468;-70
2022/07/05 07:10:38;;;;;;;2.70;2.17;;;20.10;98.00;;;;;;5048679;28;20509;-67
2022/07/05 07:13:05;;;;;;;3.07;2.30;;;20.30;98.00;;;;;;5048699;28;20500;-65
2022/07/05 07:15:33;;;;;;;2.80;2.10;;;20.60;98.00;;;;;;5049552;28;20587;-65
2022/07/05 07:18:06;;;;;;;1.90;1.70;;;20.90;98.00;;;;;;5050043;28;20496;-65
2022/07/05 07:20:36;;;;;;;3.00;2.00;;;21.20;98.00;;;;;;5050850;28;20468;-65
2022/07/05 07:23:22;;;;;;;2.23;2.03;;;21.60;98.00;;;;;;5050171;28;20507;-66
2022/07/05 07:26:09;;;;;;;3.43;2.40;;;22.00;98.00;;;;;;5050858;28;20460;-65
2022/07/05 07:28:39;;;;;;;3.17;2.13;;;22.00;98.00;;;;;;5050988;28;20453;-65
2022/07/05 07:31:06;;;;;;;3.23;2.20;;;22.30;98.00;;;;;;5050439;28;20458;-65
2022/07/05 07:33:34;;;;;;;2.10;1.90;;;22.50;98.00;;;;;;5049572;28;20450;-65
2022/07/05 07:36:02;;;;;;;3.77;2.60;;;22.60;98.00;;;;;;5049188;28;20701;-65
2022/07/05 07:38:32;;;;;;;2.17;1.90;;;22.60;98.00;;;;;;5048071;28;21148;-65
2022/07/05 07:41:00;;;;;;;5.47;2.40;;;22.70;98.00;;;;;;5047964;28;20473;-65
2022/07/05 07:43:27;;;;;;;7.10;2.90;;;22.90;98.00;;;;;;5048502;28;20658;-71
2022/07/05 07:45:54;;;;;;;2.77;2.30;;;23.10;98.00;;;;;;5048703;28;20960;-71
2022/07/05 07:48:21;;;;;;;3.77;2.67;;;23.10;98.00;;;;;;5048168;28;20528;-71
2022/07/05 07:50:48;;;;;;;6.40;2.20;;;22.90;97.50;;;;;;5045447;28;20453;-71
2022/07/05 07:53:33;;;;;;;4.40;2.57;;;22.90;98.00;;;;;;5048240;28;20497;-71
2022/07/05 07:56:00;;;;;;;4.30;2.83;;;22.70;98.00;;;;;;5048016;28;20474;-72
2022/07/05 07:58:29;;;;;;;3.97;2.30;;;22.60;98.00;;;;;;5048669;28;20822;-72
2022/07/05 08:00:56;;;;;;;2.50;1.83;;;22.60;98.00;;;;;;5048463;28;20474;-68
2022/07/05 08:03:23;;;;;;;3.00;2.30;;;22.70;97.30;;;;;;5048571;28;20962;-71
2022/07/05 08:05:50;;;;;;;2.90;1.93;;;22.80;98.00;;;;;;5048233;28;20468;-71
2022/07/05 08:08:17;;;;;;;2.87;2.20;;;22.90;98.00;;;;;;5049489;28;20473;-71
2022/07/05 08:10:46;;;;;;;3.13;2.33;;;23.00;96.20;;;;;;5049259;28;20466;-70
2022/07/05 08:13:13;;;;;;;2.20;1.90;;;23.10;95.70;;;;;;5050555;28;20862;-72
2022/07/05 08:15:41;;;;;;;4.50;2.30;;;23.20;95.40;;;;;;5046628;28;20474;-71
2022/07/05 08:23:37;;;;;;;2.97;2.30;;;23.10;94.30;;;;;;5040238;28;20433;-72
2022/07/05 08:26:06;;;;;;;3.20;2.07;;;23.00;94.00;;;;;;5048024;28;20468;-72
2022/07/05 08:28:33;;;;;;;2.80;2.23;;;23.00;93.50;;;;;;5040374;28;20477;-72
2022/07/05 08:31:23;;;;;;;2.63;2.20;;;23.10;93.40;;;;;;5047761;28;20466;-72
2022/07/05 08:33:50;;;;;;;3.00;1.77;;;23.30;92.20;;;;;;5042364;28;20986;-71
2022/07/05 08:36:24;;;;;;;2.43;1.83;;;23.60;94.40;;;;;;5046454;28;20840;-71
2022/07/05 08:38:52;;;;;;;3.07;2.13;;;23.70;89.90;;;;;;5047842;28;20511;-71
2022/07/05 08:41:25;;;;;;;4.47;1.83;;;23.80;90.10;;;;;;5050588;28;20473;-72
2022/07/05 08:43:52;;;;;;;2.37;1.60;;;23.90;87.60;;;;;;5050535;28;20464;-72
2022/07/05 08:46:20;;;;;;;2.17;1.83;;;23.90;84.10;;;;;;5050355;28;20821;-72
2022/07/05 08:48:50;;;;;;;2.10;1.70;;;23.90;85.40;;;;;;5050563;28;20767;-71
2022/07/05 08:51:20;;;;;;;3.20;2.10;;;24.00;89.20;;;;;;5052036;28;20472;-72
2022/07/05 08:53:48;;;;;;;2.47;2.03;;;23.90;90.10;;;;;;5053794;28;21190;-71
2022/07/05 08:56:17;;;;;;;2.60;1.87;;;23.90;89.90;;;;;;5053876;28;20462;-71
2022/07/05 08:58:49;;;;;;;2.10;1.93;;;24.00;89.30;;;;;;5054020;28;20462;-72
2022/07/05 09:01:16;;;;;;;2.93;2.03;;;24.20;92.20;;;;;;5053837;28;20454;-71
2022/07/05 09:03:47;;;;;;;2.80;2.10;;;24.30;90.00;;;;;;5053749;28;20808;-72
2022/07/05 09:06:17;;;;;;;2.80;1.87;;;24.40;89.40;;;;;;5053777;28;20775;-72
2022/07/05 09:08:45;;;;;;;2.00;1.80;;;24.60;89.50;;;;;;5053616;28;20450;-72
2022/07/05 09:11:16;;;;;;;2.10;1.90;;;24.60;88.70;;;;;;5053719;28;20542;-71
2022/07/05 09:13:48;;;;;;;2.57;1.90;;;24.70;86.90;;;;;;5053253;28;20568;-71
2022/07/05 09:16:17;;;;;;;2.67;1.90;;;24.60;87.90;;;;;;5053812;28;20818;-72
2022/07/05 09:18:45;;;;;;;2.50;2.20;;;24.60;87.80;;;;;;5053570;28;20485;-71
2022/07/05 09:21:14;;;;;;;3.97;2.30;;;24.70;88.20;;;;;;5053359;28;20455;-71
2022/07/05 09:23:42;;;;;;;2.37;1.77;;;24.70;86.50;;;;;;5053736;28;20548;-71
2022/07/05 09:26:09;;;;;;;4.87;2.20;;;24.70;87.80;;;;;;5072413;28;20457;-70
2022/07/05 09:28:37;;;;;;;2.53;2.20;;;24.90;88.50;;;;;;5057013;28;20469;-71
2022/07/05 09:31:09;;;;;;;3.80;2.10;;;25.00;88.20;;;;;;5053491;28;20562;-70
2022/07/05 09:33:51;;;;;;;2.13;1.80;;;25.30;92.30;;;;;;5053302;28;20490;-70
2022/07/05 09:36:18;;;;;;;2.50;1.90;;;25.50;88.70;;;;;;5053123;28;20458;-71
2022/07/05 09:38:51;;;;;;;2.23;1.87;;;25.60;85.30;;;;;;5053136;28;20465;-72
2022/07/05 09:41:19;;;;;;;2.50;1.80;;;25.70;85.70;;;;;;5053087;28;20818;-73
2022/07/05 09:43:46;;;;;;;3.87;1.97;;;25.80;88.90;;;;;;5052515;28;20494;-71
2022/07/05 09:46:15;;;;;;;4.33;2.10;;;25.90;87.50;;;;;;5049455;28;20465;-70
2022/07/05 09:48:52;;;;;;;2.30;1.90;;;26.10;87.10;;;;;;5050536;28;20881;-71
2022/07/05 09:51:20;;;;;;;2.13;1.83;;;26.20;84.30;;;;;;5047754;28;20959;-73
2022/07/05 09:53:49;;;;;;;2.40;1.77;;;26.20;84.30;;;;;;5050608;28;20509;-71
2022/07/05 09:56:17;;;;;;;1.97;1.87;;;26.20;82.10;;;;;;5050512;28;20465;-71
2022/07/05 09:58:45;;;;;;;2.43;1.97;;;26.30;83.40;;;;;;5050451;28;21067;-71
2022/07/05 10:01:26;;;;;;;2.20;2.00;;;26.30;83.30;;;;;;5049843;28;20469;-72
2022/07/05 10:03:56;;;;;;;4.63;2.23;;;26.40;84.20;;;;;;5050467;28;20458;-71
2022/07/05 10:06:25;;;;;;;7.20;2.40;;;26.40;81.10;;;;;;5050351;28;20473;-72
2022/07/05 10:08:54;;;;;;;2.00;1.90;;;26.50;84.00;;;;;;5050099;28;20469;-71
2022/07/05 10:11:22;;;;;;;2.57;1.80;;;26.60;83.10;;;;;;5050251;28;21062;-72
2022/07/05 10:13:51;;;;;;;2.50;1.90;;;26.60;82.00;;;;;;5050092;28;20984;-72
2022/07/05 10:16:19;;;;;;;2.77;2.10;;;26.80;83.20;;;;;;5050283;28;20553;-71
2022/07/05 10:18:49;;;;;;;2.23;1.90;;;26.90;81.00;;;;;;5050097;28;20462;-71
2022/07/05 10:21:17;;;;;;;2.60;1.80;;;27.00;81.30;;;;;;5050162;28;20462;-72
2022/07/05 10:23:46;;;;;;;1.60;1.47;;;27.20;79.90;;;;;;5050151;28;20536;-71
2022/07/05 10:26:17;;;;;;;3.30;1.80;;;27.40;82.20;;;;;;5049621;28;20470;-68
2022/07/05 10:28:47;;;;;;;2.50;1.90;;;27.30;75.70;;;;;;5050109;28;20827;-68
2022/07/05 10:31:16;;;;;;;2.63;1.90;;;27.10;78.40;;;;;;5049581;28;21010;-65
2022/07/05 10:33:43;;;;;;;2.33;1.93;;;27.10;77.60;;;;;;5050003;28;20485;-65
2022/07/05 10:36:13;;;;;;;2.03;1.73;;;27.30;81.10;;;;;;5049118;28;21714;-65
2022/07/05 10:38:44;;;;;;;2.60;2.00;;;27.50;79.30;;;;;;5049209;28;20454;-65
2022/07/05 10:41:15;;;;;;;1.90;1.60;;;27.50;78.80;;;;;;5032052;28;20466;-66
2022/07/05 10:43:43;;;;;;;2.00;1.80;;;27.80;79.50;;;;;;5049320;28;21030;-66
2022/07/05 10:46:10;;;;;;;2.03;1.80;;;27.90;75.30;;;;;;5049141;28;20449;-67
2022/07/05 10:48:37;;;;;;;1.70;1.57;;;28.00;78.30;;;;;;5047819;28;20650;-68
2022/07/05 10:51:17;;;;;;;3.20;1.90;;;28.00;75.80;;;;;;5047583;28;20956;-75
2022/07/05 10:54:02;;;;;;;1.93;1.70;;;28.10;75.30;;;;;;5047970;28;20485;-72
2022/07/05 10:56:30;;;;;;;2.43;1.80;;;28.20;76.30;;;;;;5041049;28;20540;-74
2022/07/05 10:59:07;;;;;;;2.53;1.87;;;28.30;75.30;;;;;;5049128;28;20600;-73
2022/07/05 11:01:39;;;;;;;1.93;1.80;;;28.30;72.00;;;;;;5041838;28;20458;-71
2022/07/05 11:04:26;;;;;;;2.20;1.87;;;28.20;72.40;;;;;;5047425;28;20474;-75
2022/07/05 11:06:54;;;;;;;2.30;2.00;;;28.30;76.80;;;;;;5048813;28;20454;-70
2022/07/05 11:09:22;;;;;;;2.50;2.10;;;28.60;75.70;;;;;;5048781;28;20878;-71
2022/07/05 11:12:04;;;;;;;2.57;1.80;;;28.70;77.00;;;;;;5048265;28;20986;-73
2022/07/05 11:14:37;;;;;;;2.33;2.00;;;28.70;73.70;;;;;;5048618;28;20497;-71
2022/07/05 11:17:25;;;;;;;2.63;2.00;;;28.50;73.50;;;;;;5048738;28;20959;-69
2022/07/05 11:20:10;;;;;;;2.83;2.10;;;28.10;76.40;;;;;;5048850;28;20464;-67
2022/07/05 11:22:41;;;;;;;2.50;2.00;;;28.20;75.00;;;;;;5041613;28;20543;-72
2022/07/05 11:25:12;;;;;;;4.13;2.20;;;28.50;73.40;;;;;;5048722;28;20801;-73
2022/07/05 11:28:00;;;;;;;3.03;1.90;;;28.70;71.30;;;;;;5048962;28;20474;-72
2022/07/05 11:30:28;;;;;;;1.90;1.60;;;29.20;72.50;;;;;;5048466;28;20470;-72
2022/07/05 11:32:55;;;;;;;2.53;1.80;;;29.20;69.80;;;;;;5048605;28;20845;-72
2022/07/05 11:35:32;;;;;;;3.57;1.80;;;29.10;70.20;;;;;;5048737;28;20458;-69
2022/07/05 11:38:06;;;;;;;1.97;1.67;;;29.30;71.20;;;;;;5048599;28;20473;-69
2022/07/05 11:40:35;;;;;;;2.93;1.97;;;29.40;67.80;;;;;;5048325;28;20456;-69
2022/07/05 11:43:02;;;;;;;1.70;1.60;;;29.60;72.00;;;;;;5048331;28;20470;-71
2022/07/05 11:45:32;;;;;;;1.70;1.63;;;29.70;70.10;;;;;;5048200;28;20553;-72
2022/07/05 11:47:59;;;;;;;2.33;2.00;;;29.90;71.00;;;;;;5048393;28;20893;-72
2022/07/05 11:50:29;;;;;;;2.50;2.00;;;30.10;70.60;;;;;;5046814;28;20460;-70
2022/07/05 11:52:56;;;;;;;2.23;2.00;;;30.30;69.40;;;;;;5046948;28;20477;-71
2022/07/05 11:55:27;;;;;;;2.23;1.90;;;30.50;69.40;;;;;;5048246;28;20480;-70
2022/07/05 11:57:55;;;;;;;2.07;1.60;;;30.70;68.00;;;;;;5048448;28;20458;-71
2022/07/05 12:00:31;;;;;;;2.30;1.70;;;31.00;71.60;;;;;;5047961;28;20465;-70
2022/07/05 12:02:58;;;;;;;1.70;1.53;;;31.20;69.80;;;;;;5048236;28;20484;-71
2022/07/05 12:05:31;;;;;;;2.70;1.80;;;31.20;66.20;;;;;;5048134;28;20469;-71
2022/07/05 12:07:58;;;;;;;2.33;1.60;;;30.90;65.10;;;;;;5048057;28;20808;-71
2022/07/05 12:13:17;;;;;;;1.83;1.70;;;31.40;63.70;;;;;;5048011;28;20600;-69
2022/07/05 12:15:46;;;;;;;2.50;2.00;;;31.40;70.30;;;;;;5047320;28;20956;-68
2022/07/05 12:18:15;;;;;;;2.50;1.90;;;31.20;67.00;;;;;;5047819;28;20465;-68
2022/07/05 12:20:43;;;;;;;2.30;1.93;;;31.00;68.70;;;;;;5046257;28;20458;-69
2022/07/05 12:23:11;;;;;;;1.90;1.80;;;31.40;68.90;;;;;;5048171;28;20959;-67
2022/07/05 12:25:39;;;;;;;1.97;1.80;;;31.40;67.10;;;;;;5050655;28;20497;-67
2022/07/05 12:28:11;;;;;;;2.03;1.90;;;31.60;67.10;;;;;;5051656;28;20461;-67
2022/07/05 12:30:38;;;;;;;2.47;1.90;;;31.70;68.10;;;;;;5051959;28;20465;-68
2022/07/05 12:33:09;;;;;;;2.37;1.90;;;31.40;66.60;;;;;;5051156;28;20497;-67
2022/07/05 12:35:40;;;;;;;1.67;1.60;;;31.40;69.20;;;;;;5051947;28;20462;-67
2022/07/05 12:38:10;;;;;;;2.33;1.90;;;31.40;71.80;;;;;;5051639;28;21014;-68
2022/07/05 12:40:39;;;;;;;2.30;1.80;;;31.60;67.70;;;;;;5051979;28;20469;-68
2022/07/05 12:43:09;;;;;;;1.93;1.90;;;31.90;64.70;;;;;;5050658;28;20461;-67
2022/07/05 12:45:36;;;;;;;2.33;1.83;;;31.40;66.20;;;;;;5051856;28;20511;-69
2022/07/05 12:48:05;;;;;;;1.80;1.60;;;31.50;63.30;;;;;;5051485;28;20461;-67
2022/07/05 12:50:47;;;;;;;2.33;1.90;;;31.10;62.60;;;;;;5050541;28;20484;-69
2022/07/05 12:58:51;;;;;;;2.20;1.80;;;31.70;63.30;;;;;;5051513;28;20445;-70
2022/07/05 13:01:23;;;;;;;1.80;1.53;;;32.10;61.70;;;;;;5043788;28;20465;-69
2022/07/05 13:04:03;;;;;;;2.07;1.87;;;32.20;61.90;;;;;;5052559;28;20457;-72
2022/07/05 13:06:50;;;;;;;2.30;1.77;;;32.50;61.00;;;;;;5053633;28;20514;-72
2022/07/05 13:09:32;;;;;;;1.80;1.67;;;32.70;60.50;;;;;;5053384;28;20454;-72
2022/07/05 13:12:14;;;;;;;2.10;2.00;;;33.00;60.50;;;;;;5053872;28;20466;-72
2022/07/05 13:14:43;;;;;;;1.93;1.90;;;32.70;59.70;;;;;;5054188;28;20568;-72